Terminal Aerodrome Forecast
Issued by NWS Twin Cities, MN

Home | Current Version | Previous Version | Text Only | Print | Product List | Glossary Off
Versions: 1 2 3 4 5 6 7 8 9 10 11 12 13 14 15 16 17 18 19 20 21 22 23 24 25 26 27 28 29

000
FTUS43 KMPX 162059 AAA
TAFMSP
TAF AMD
KMSP 162059Z 1621/1724 06005KT 6SM BR OVC018
      TEMPO 1621/1624 OVC012
     FM170000 06004KT 4SM -FZRA BR OVC007
     FM170400 02005KT 5SM -SN BR OVC011
     FM170800 36006KT 6SM BR OVC015 PROB30 1708/1712 4SM -FZDZ BR
      OVC010
     FM171500 33004KT P6SM BKN020=

USA.gov is the U.S. government's official web portal to all federal, state and local government web resources and services.